createdAt,value
2023-04-18T00:00:39.563Z,66.42
2023-04-18T00:01:41.135Z,65.81
2023-04-18T00:02:43.986Z,66.33
2023-04-18T00:03:46.049Z,65.93
2023-04-18T00:04:48.191Z,65.74
2023-04-18T00:05:49.787Z,64.86
2023-04-18T00:06:51.447Z,65.64
2023-04-18T00:07:53.429Z,65.55
2023-04-18T00:08:55.033Z,65.47
2023-04-18T00:09:56.782Z,65.60
2023-04-18T00:10:58.316Z,65.71
2023-04-18T00:11:59.850Z,65.89
2023-04-18T00:13:01.402Z,66.17
2023-04-18T00:14:03.337Z,65.81
2023-04-18T00:15:06.244Z,65.65
2023-04-18T00:16:08.610Z,65.73
2023-04-18T00:17:10.417Z,65.41
2023-04-18T00:18:15.968Z,65.39
2023-04-18T00:19:18.438Z,65.45
2023-04-18T00:20:20.341Z,65.43
2023-04-18T00:21:22.672Z,65.84
2023-04-18T00:22:25.469Z,65.79
2023-04-18T00:23:28.127Z,65.58
2023-04-18T00:24:29.738Z,65.66
2023-04-18T00:25:31.527Z,66.15
2023-04-18T00:26:33.046Z,65.82
2023-04-18T00:27:34.486Z,65.27
2023-04-18T00:28:35.953Z,65.44
2023-04-18T00:29:37.785Z,65.48
2023-04-18T00:30:39.337Z,64.83
2023-04-18T00:31:46.961Z,65.03
2023-04-18T00:32:48.695Z,64.81
2023-04-18T00:33:53.171Z,64.43
2023-04-18T00:34:54.693Z,65.13
2023-04-18T00:35:56.129Z,65.27
2023-04-18T00:36:57.777Z,64.53
2023-04-18T00:37:59.229Z,64.58
2023-04-18T00:39:00.770Z,64.64
2023-04-18T00:40:02.248Z,64.76
2023-04-18T00:41:03.740Z,65.16
2023-04-18T00:42:05.505Z,64.96
2023-04-18T00:43:09.969Z,64.36
2023-04-18T00:44:11.523Z,64.40
2023-04-18T00:45:13.086Z,64.23
2023-04-18T00:46:14.625Z,64.26
2023-04-18T00:47:17.623Z,64.01
2023-04-18T00:48:19.004Z,63.97
2023-04-18T00:49:21.312Z,64.32
2023-04-18T00:50:24.028Z,64.14
2023-04-18T00:51:25.777Z,64.10
2023-04-18T00:52:27.719Z,63.96
2023-04-18T00:53:29.420Z,64.07
2023-04-18T00:54:31.119Z,64.04
2023-04-18T00:55:32.955Z,64.50
2023-04-18T00:56:36.155Z,64.28
2023-04-18T00:57:37.710Z,64.14
2023-04-18T00:58:41.974Z,63.81
2023-04-18T00:59:43.720Z,63.50
2023-04-18T01:00:45.779Z,63.11
2023-04-18T01:01:47.696Z,63.24
2023-04-18T01:02:53.439Z,63.52
2023-04-18T01:03:55.342Z,63.19
2023-04-18T01:04:58.830Z,62.85
2023-04-18T01:06:05.036Z,62.87
2023-04-18T01:07:07.050Z,63.34
2023-04-18T01:08:10.750Z,63.60
2023-04-18T01:09:14.142Z,64.53
2023-04-18T01:10:16.122Z,65.06
2023-04-18T01:11:17.841Z,64.71
2023-04-18T01:12:19.437Z,64.34
2023-04-18T01:13:21.512Z,64.24
2023-04-18T01:14:23.480Z,64.44
2023-04-18T01:15:24.937Z,64.18
2023-04-18T01:16:27.164Z,64.22
2023-04-18T01:17:29.451Z,64.70
2023-04-18T01:18:31.615Z,63.64
2023-04-18T01:19:33.515Z,63.80
2023-04-18T01:20:38.418Z,64.33
2023-04-18T01:21:43.955Z,64.20
2023-04-18T01:22:45.649Z,64.62
2023-04-18T01:23:50.291Z,64.28
2023-04-18T01:24:51.893Z,64.67
2023-04-18T01:25:53.397Z,64.44
2023-04-18T01:26:54.933Z,63.71
2023-04-18T01:27:59.781Z,64.49
2023-04-18T01:29:01.654Z,64.68
2023-04-18T01:30:04.106Z,64.44
2023-04-18T01:31:05.885Z,64.17
2023-04-18T01:32:07.576Z,64.09
2023-04-18T01:33:09.120Z,64.24
2023-04-18T01:34:10.804Z,64.51
2023-04-18T01:35:12.428Z,64.40
2023-04-18T01:36:14.096Z,64.60
2023-04-18T01:37:15.632Z,63.70
2023-04-18T01:38:17.176Z,64.59
2023-04-18T01:39:18.736Z,63.79
2023-04-18T01:40:20.469Z,63.87
2023-04-18T01:41:21.892Z,64.01
2023-04-18T01:42:23.404Z,63.71
2023-04-18T01:43:24.858Z,63.82
2023-04-18T01:44:26.709Z,64.21
2023-04-18T01:45:28.182Z,64.07
2023-04-18T01:46:29.966Z,64.25
2023-04-18T01:47:31.550Z,64.76
2023-04-18T01:48:34.611Z,64.78
2023-04-18T01:49:36.621Z,64.52
2023-04-18T01:50:41.034Z,64.25
2023-04-18T01:51:43.229Z,64.26
2023-04-18T01:52:44.878Z,64.20
2023-04-18T01:53:46.431Z,64.11
2023-04-18T01:54:48.074Z,64.10
2023-04-18T01:55:50.571Z,64.38
2023-04-18T01:56:52.206Z,64.00
2023-04-18T01:57:53.691Z,64.43
2023-04-18T01:58:55.435Z,64.54
2023-04-18T01:59:57.065Z,64.16
2023-04-18T02:00:58.670Z,63.95
2023-04-18T02:02:00.284Z,63.98
2023-04-18T02:03:02.116Z,64.53
2023-04-18T02:04:03.966Z,64.62
2023-04-18T02:05:05.891Z,64.57
2023-04-18T02:06:07.669Z,64.11
2023-04-18T02:07:09.107Z,64.71
2023-04-18T02:08:11.675Z,64.99
2023-04-18T02:09:13.114Z,64.62
2023-04-18T02:10:14.587Z,64.67
2023-04-18T02:11:16.079Z,64.74
2023-04-18T02:12:17.727Z,65.07
2023-04-18T02:13:19.183Z,64.95
2023-04-18T02:14:20.790Z,64.58
2023-04-18T02:15:23.986Z,64.97
2023-04-18T02:16:25.560Z,65.09
2023-04-18T02:17:28.431Z,65.12
2023-04-18T02:18:30.667Z,65.23
2023-04-18T02:19:32.257Z,65.37
2023-04-18T02:20:33.884Z,65.54
2023-04-18T02:21:35.508Z,64.64
2023-04-18T02:22:38.272Z,65.33
2023-04-18T02:23:39.777Z,65.30
2023-04-18T02:24:41.369Z,65.51
2023-04-18T02:25:43.153Z,64.68
2023-04-18T02:26:46.978Z,65.04
2023-04-18T02:27:51.502Z,64.72
2023-04-18T02:28:53.060Z,64.77
2023-04-18T02:29:54.902Z,64.60
2023-04-18T02:30:56.444Z,64.36
2023-04-18T02:31:58.474Z,64.57
2023-04-18T02:33:00.086Z,64.75
2023-04-18T02:34:01.834Z,64.50
2023-04-18T02:35:04.118Z,64.39
2023-04-18T02:36:06.119Z,63.78
2023-04-18T02:37:07.617Z,64.49
2023-04-18T02:38:09.224Z,64.81
2023-04-18T02:39:10.865Z,64.99
2023-04-18T02:40:13.096Z,65.11
2023-04-18T02:41:17.558Z,65.05
2023-04-18T02:42:19.353Z,65.27
2023-04-18T02:43:20.917Z,64.85
2023-04-18T02:44:22.469Z,64.86
2023-04-18T02:45:24.298Z,65.31
2023-04-18T02:46:29.214Z,64.71
2023-04-18T02:47:37.593Z,65.43
2023-04-18T02:48:45.417Z,64.71
2023-04-18T02:49:46.958Z,64.66
2023-04-18T02:50:49.076Z,64.76
2023-04-18T02:51:50.626Z,64.71
2023-04-18T02:52:52.142Z,64.83
2023-04-18T02:53:55.111Z,64.93
2023-04-18T02:54:56.521Z,65.54
2023-04-18T02:55:58.613Z,65.32
2023-04-18T02:57:01.305Z,65.28
2023-04-18T02:58:03.167Z,65.32
2023-04-18T02:59:07.266Z,65.25
2023-04-18T03:00:09.560Z,65.63
2023-04-18T03:01:13.369Z,65.66
2023-04-18T03:02:15.155Z,66.03
2023-04-18T03:03:19.892Z,65.99
2023-04-18T03:04:23.945Z,66.15
2023-04-18T03:05:25.878Z,65.79
2023-04-18T03:06:27.421Z,65.47
2023-04-18T03:07:29.047Z,65.44
2023-04-18T03:08:30.664Z,65.40
2023-04-18T03:09:32.288Z,65.80
2023-04-18T03:10:34.781Z,65.66
2023-04-18T03:11:36.315Z,65.74
2023-04-18T03:12:37.942Z,66.01
2023-04-18T03:13:39.442Z,66.11
2023-04-18T03:14:41.222Z,65.65
2023-04-18T03:15:43.504Z,65.73
2023-04-18T03:16:45.292Z,65.70
2023-04-18T03:17:46.851Z,66.18
2023-04-18T03:18:48.481Z,66.64
2023-04-18T03:19:50.027Z,66.48
2023-04-18T03:20:51.921Z,66.83
2023-04-18T03:21:53.526Z,67.19
2023-04-18T03:22:55.070Z,67.07
2023-04-18T03:23:56.571Z,66.68
2023-04-18T03:25:00.113Z,66.54
2023-04-18T03:26:01.897Z,66.43
2023-04-18T03:27:03.763Z,66.36
2023-04-18T03:28:05.496Z,66.21
2023-04-18T03:29:07.250Z,66.73
2023-04-18T03:30:09.746Z,66.34
2023-04-18T03:31:11.795Z,66.74
2023-04-18T03:32:13.506Z,67.26
2023-04-18T03:33:17.141Z,67.01
2023-04-18T03:34:18.756Z,66.89
2023-04-18T03:35:20.391Z,66.86
2023-04-18T03:36:25.717Z,66.44
2023-04-18T03:37:27.361Z,66.60
2023-04-18T03:38:28.916Z,66.43
2023-04-18T03:39:30.510Z,66.55
2023-04-18T03:40:32.260Z,66.50
2023-04-18T03:41:45.121Z,66.39
2023-04-18T03:42:49.028Z,66.74
2023-04-18T03:43:50.654Z,66.07
2023-04-18T03:44:52.405Z,65.82
2023-04-18T03:45:56.587Z,66.26
2023-04-18T03:47:00.866Z,65.99
2023-04-18T03:48:02.691Z,66.32
2023-04-18T03:49:06.780Z,66.14
2023-04-18T03:50:08.637Z,66.39
2023-04-18T03:51:10.215Z,66.47
2023-04-18T03:52:11.901Z,66.04
2023-04-18T03:53:14.486Z,66.60
2023-04-18T03:54:17.129Z,67.15
2023-04-18T03:55:19.793Z,66.79
2023-04-18T03:56:21.483Z,66.86
2023-04-18T03:57:23.079Z,66.80
2023-04-18T03:58:24.874Z,67.15
2023-04-18T03:59:26.758Z,66.96
2023-04-18T04:00:28.644Z,66.85
2023-04-18T04:01:31.881Z,67.25
2023-04-18T04:02:41.076Z,67.10
2023-04-18T04:03:53.386Z,67.03
2023-04-18T04:05:06.635Z,67.32
2023-04-18T04:06:23.157Z,66.91
2023-04-18T04:07:28.221Z,67.12
2023-04-18T04:08:30.058Z,67.44
2023-04-18T04:09:34.116Z,67.66
2023-04-18T04:10:36.065Z,67.68
2023-04-18T04:11:43.636Z,67.63
2023-04-18T04:12:49.876Z,67.96
2023-04-18T04:14:01.539Z,67.56
2023-04-18T04:15:06.368Z,66.96
2023-04-18T04:16:08.162Z,66.90
2023-04-18T04:17:10.255Z,66.85
2023-04-18T04:18:11.823Z,67.32
2023-04-18T04:19:15.787Z,67.36
2023-04-18T04:20:22.980Z,67.17
2023-04-18T04:21:24.563Z,67.16
2023-04-18T04:22:27.068Z,67.13
2023-04-18T04:23:28.545Z,67.41
2023-04-18T04:24:30.884Z,66.75
2023-04-18T04:25:33.364Z,66.69
2023-04-18T04:26:44.407Z,67.05
2023-04-18T04:27:46.214Z,66.93
2023-04-18T04:28:48.730Z,66.91
2023-04-18T04:29:54.951Z,67.30
2023-04-18T04:30:58.929Z,67.29
2023-04-18T04:32:04.057Z,67.15
2023-04-18T04:33:09.227Z,67.88
2023-04-18T04:34:16.198Z,67.64
2023-04-18T04:35:18.374Z,67.47
2023-04-18T04:36:30.052Z,67.31
2023-04-18T04:37:36.692Z,67.53
2023-04-18T04:38:40.737Z,67.70
2023-04-18T04:39:42.539Z,67.95
2023-04-18T04:40:44.276Z,67.74
2023-04-18T04:41:47.294Z,67.73
2023-04-18T04:43:10.920Z,68.28
2023-04-18T04:44:26.281Z,67.88
2023-04-18T04:45:27.841Z,67.80
2023-04-18T04:46:30.789Z,68.45
2023-04-18T04:47:32.180Z,68.41
2023-04-18T04:48:33.980Z,67.94
2023-04-18T04:49:35.750Z,68.32
2023-04-18T04:50:39.052Z,67.90
2023-04-18T04:51:40.550Z,68.14
2023-04-18T04:52:42.927Z,68.13
2023-04-18T04:53:44.770Z,67.86
2023-04-18T04:54:46.613Z,67.58
2023-04-18T04:55:48.576Z,67.75
2023-04-18T04:56:50.107Z,67.72
2023-04-18T04:57:51.623Z,68.09
2023-04-18T04:58:54.439Z,67.79
2023-04-18T04:59:55.901Z,67.35
2023-04-18T05:00:57.561Z,68.02
2023-04-18T05:01:59.091Z,67.74
2023-04-18T05:03:00.855Z,67.99
2023-04-18T05:04:02.821Z,68.30
2023-04-18T05:05:04.711Z,67.82
2023-04-18T05:06:06.341Z,67.70
2023-04-18T05:07:07.817Z,68.12
2023-04-18T05:08:09.309Z,67.96
2023-04-18T05:09:11.066Z,67.82
2023-04-18T05:10:12.619Z,67.94
2023-04-18T05:11:14.294Z,67.76
2023-04-18T05:12:15.808Z,67.71
2023-04-18T05:13:17.255Z,68.01
2023-04-18T05:14:21.099Z,67.61
2023-04-18T05:15:23.377Z,68.06
2023-04-18T05:16:24.916Z,67.88
2023-04-18T05:17:26.443Z,68.19
2023-04-18T05:18:27.949Z,67.79
2023-04-18T05:19:29.512Z,67.78
2023-04-18T05:20:31.156Z,68.13
2023-04-18T05:21:32.769Z,68.08
2023-04-18T05:22:35.738Z,68.22
2023-04-18T05:23:37.361Z,68.22
2023-04-18T05:24:39.519Z,68.17
2023-04-18T05:25:41.023Z,68.36
2023-04-18T05:26:43.392Z,68.31
2023-04-18T05:27:46.976Z,68.67
2023-04-18T05:28:49.099Z,68.62
2023-04-18T05:29:50.992Z,68.24
2023-04-18T05:30:52.756Z,68.29
2023-04-18T05:31:54.779Z,68.17
2023-04-18T05:32:56.494Z,68.14
2023-04-18T05:33:58.054Z,68.28
2023-04-18T05:34:59.488Z,68.19
2023-04-18T05:36:00.981Z,68.21
2023-04-18T05:37:02.493Z,68.22
2023-04-18T05:38:03.908Z,67.99
2023-04-18T05:39:05.355Z,68.15
2023-04-18T05:40:09.001Z,67.69
2023-04-18T05:41:10.582Z,67.71
2023-04-18T05:42:12.068Z,67.90
2023-04-18T05:43:13.655Z,67.83
2023-04-18T05:44:16.113Z,67.86
2023-04-18T05:45:17.686Z,67.93
2023-04-18T05:46:19.252Z,67.56
2023-04-18T05:47:21.186Z,67.52
2023-04-18T05:48:23.368Z,68.22
2023-04-18T05:49:24.809Z,67.49
2023-04-18T05:50:27.316Z,67.67
2023-04-18T05:51:29.267Z,67.81
2023-04-18T05:52:31.308Z,67.75
2023-04-18T05:53:32.751Z,67.81
2023-04-18T05:54:34.274Z,67.87
2023-04-18T05:55:35.940Z,67.63
2023-04-18T05:56:37.475Z,67.51
2023-04-18T05:57:39.204Z,67.39
2023-04-18T05:58:40.620Z,67.71
2023-04-18T05:59:42.115Z,67.46
2023-04-18T06:00:44.602Z,67.96
2023-04-18T06:01:46.724Z,68.39
2023-04-18T06:02:49.694Z,68.30
2023-04-18T06:03:51.538Z,68.26
2023-04-18T06:04:53.316Z,68.08
2023-04-18T06:05:54.989Z,68.02
2023-04-18T06:06:56.549Z,67.58
2023-04-18T06:07:58.042Z,68.13
2023-04-18T06:08:59.484Z,67.80
2023-04-18T06:10:01.097Z,67.33
2023-04-18T06:11:02.704Z,67.84
2023-04-18T06:12:04.425Z,67.87
2023-04-18T06:13:06.050Z,68.44
2023-04-18T06:14:07.897Z,68.35
2023-04-18T06:15:10.358Z,68.59
2023-04-18T06:16:11.979Z,68.42
2023-04-18T06:17:13.976Z,68.33
2023-04-18T06:18:15.460Z,68.59
2023-04-18T06:19:16.961Z,68.24
2023-04-18T06:20:18.743Z,68.45
2023-04-18T06:21:21.141Z,68.62
2023-04-18T06:22:22.781Z,68.65
2023-04-18T06:23:24.360Z,68.46
2023-04-18T06:24:25.965Z,69.08
2023-04-18T06:25:27.745Z,68.37
2023-04-18T06:26:31.976Z,68.53
2023-04-18T06:27:33.665Z,68.16
2023-04-18T06:28:35.725Z,68.47
2023-04-18T06:29:38.160Z,67.94
2023-04-18T06:30:39.769Z,67.83
2023-04-18T06:31:42.263Z,67.74
2023-04-18T06:32:43.937Z,67.56
2023-04-18T06:33:45.454Z,67.04
2023-04-18T06:34:46.930Z,67.47
2023-04-18T06:35:48.428Z,67.55
2023-04-18T06:36:50.038Z,67.86
2023-04-18T06:37:51.987Z,67.82
2023-04-18T06:38:53.483Z,67.07
2023-04-18T06:39:54.982Z,66.84
2023-04-18T06:40:56.510Z,66.86
2023-04-18T06:41:58.157Z,66.71
2023-04-18T06:42:59.678Z,67.39
2023-04-18T06:44:04.051Z,67.15
2023-04-18T06:45:06.677Z,66.89
2023-04-18T06:46:08.578Z,66.94
2023-04-18T06:47:11.088Z,66.27
2023-04-18T06:48:12.545Z,66.18
2023-04-18T06:49:14.008Z,65.88
2023-04-18T06:50:15.931Z,65.90
2023-04-18T06:51:17.401Z,66.17
2023-04-18T06:52:19.925Z,66.07
2023-04-18T06:53:21.468Z,65.23
2023-04-18T06:54:22.998Z,65.26
2023-04-18T06:55:24.463Z,64.81
2023-04-18T06:56:26.224Z,65.53
2023-04-18T06:57:28.284Z,65.25
2023-04-18T06:58:30.268Z,63.63
2023-04-18T06:59:31.760Z,63.63
2023-04-18T07:00:33.289Z,63.83
2023-04-18T07:01:41.541Z,63.98
2023-04-18T07:02:43.597Z,64.59
2023-04-18T07:03:45.281Z,64.95
2023-04-18T07:04:47.314Z,64.78
2023-04-18T07:05:50.429Z,64.09
2023-04-18T07:06:52.015Z,64.12
2023-04-18T07:07:53.499Z,64.22
2023-04-18T07:08:59.994Z,64.12
2023-04-18T07:10:01.618Z,64.02
2023-04-18T07:11:03.215Z,63.70
2023-04-18T07:12:05.043Z,63.24
2023-04-18T07:13:06.499Z,63.20
2023-04-18T07:14:08.044Z,62.88
2023-04-18T07:15:10.360Z,62.16
2023-04-18T07:16:11.904Z,62.21
2023-04-18T07:17:13.770Z,61.33
2023-04-18T07:18:23.312Z,61.37
2023-04-18T07:19:32.077Z,60.97
2023-04-18T07:20:33.877Z,60.58
2023-04-18T07:21:35.416Z,59.79
2023-04-18T07:22:37.176Z,58.92
2023-04-18T07:23:38.630Z,58.06
2023-04-18T07:24:40.194Z,56.74
2023-04-18T07:25:41.976Z,56.71
2023-04-18T07:26:43.496Z,57.09
2023-04-18T07:27:44.986Z,57.13
2023-04-18T07:28:46.532Z,56.96
2023-04-18T07:29:51.379Z,56.81
2023-04-18T07:30:52.971Z,57.04
2023-04-18T07:31:54.795Z,56.76
2023-04-18T07:32:56.366Z,56.52
2023-04-18T07:33:58.628Z,56.03
2023-04-18T07:35:00.316Z,55.80
2023-04-18T07:36:02.783Z,54.97
2023-04-18T07:37:04.358Z,55.34
2023-04-18T07:38:05.903Z,55.47
2023-04-18T07:39:08.009Z,55.85
2023-04-18T07:40:10.052Z,55.85
2023-04-18T07:41:11.613Z,56.39
2023-04-18T07:42:13.216Z,56.50
2023-04-18T07:43:15.127Z,55.78
2023-04-18T07:44:16.648Z,56.17
2023-04-18T07:45:18.125Z,56.14
2023-04-18T07:46:19.880Z,55.47
2023-04-18T07:47:22.563Z,55.86
2023-04-18T07:48:25.353Z,56.01
2023-04-18T07:49:26.881Z,56.17
2023-04-18T07:50:28.427Z,56.35
2023-04-18T07:51:32.776Z,56.82
2023-04-18T07:52:34.467Z,56.96
2023-04-18T07:53:35.952Z,57.26
2023-04-18T07:54:37.393Z,57.27
2023-04-18T07:55:38.873Z,57.64
2023-04-18T07:56:41.030Z,58.09
2023-04-18T07:57:45.762Z,58.05
2023-04-18T07:58:47.826Z,57.81
2023-04-18T07:59:53.682Z,58.44
2023-04-18T08:00:55.484Z,57.53
2023-04-18T08:01:56.970Z,57.90
2023-04-18T08:02:58.962Z,58.38
2023-04-18T08:04:02.085Z,57.83
2023-04-18T08:05:04.050Z,58.02
2023-04-18T08:06:06.043Z,58.11
2023-04-18T08:07:07.479Z,58.57
2023-04-18T08:08:10.756Z,58.43
2023-04-18T08:09:12.674Z,57.44
2023-04-18T08:10:14.643Z,57.25
2023-04-18T08:11:16.560Z,57.33
2023-04-18T08:12:18.101Z,56.82
2023-04-18T08:13:19.728Z,56.81
2023-04-18T08:14:21.297Z,56.98
2023-04-18T08:15:22.792Z,56.56
2023-04-18T08:16:24.357Z,56.78
2023-04-18T08:17:25.939Z,56.53
2023-04-18T08:18:27.458Z,56.23
2023-04-18T08:19:29.075Z,56.37
2023-04-18T08:20:30.720Z,57.03
2023-04-18T08:21:32.713Z,56.35
2023-04-18T08:22:34.206Z,56.02
2023-04-18T08:23:35.626Z,56.44
2023-04-18T08:24:42.923Z,56.63
2023-04-18T08:25:51.305Z,57.06
2023-04-18T08:26:52.755Z,56.23
2023-04-18T08:27:54.415Z,56.61
2023-04-18T08:28:55.880Z,56.51
2023-04-18T08:29:58.126Z,56.32
2023-04-18T08:31:00.056Z,56.45
2023-04-18T08:32:01.620Z,56.81
2023-04-18T08:33:03.265Z,57.16
2023-04-18T08:34:05.195Z,57.34
2023-04-18T08:35:07.356Z,57.31
2023-04-18T08:36:09.510Z,57.10
2023-04-18T08:37:11.063Z,57.23
2023-04-18T08:38:12.598Z,57.19
2023-04-18T08:39:14.226Z,57.50
2023-04-18T08:40:16.775Z,56.82
2023-04-18T08:41:22.029Z,56.12
2023-04-18T08:42:23.771Z,56.20
2023-04-18T08:43:25.738Z,56.01
2023-04-18T08:44:28.405Z,54.91
2023-04-18T08:45:31.368Z,55.10
2023-04-18T08:46:36.124Z,55.13
2023-04-18T08:47:37.869Z,55.36
2023-04-18T08:48:39.382Z,55.25
2023-04-18T08:49:41.142Z,55.04
2023-04-18T08:50:43.699Z,54.98
2023-04-18T08:51:47.488Z,55.98
2023-04-18T08:52:51.297Z,55.28
2023-04-18T08:53:53.190Z,55.67
2023-04-18T08:54:54.767Z,55.70
2023-04-18T08:55:57.336Z,55.30
2023-04-18T08:57:06.082Z,55.28
2023-04-18T08:58:08.077Z,55.63
2023-04-18T08:59:11.604Z,55.37
2023-04-18T09:00:14.016Z,55.24
2023-04-18T09:01:17.749Z,55.86
2023-04-18T09:02:23.407Z,56.45
2023-04-18T09:03:55.144Z,56.60
2023-04-18T09:04:57.495Z,57.23
2023-04-18T09:06:10.683Z,57.37
2023-04-18T09:07:15.364Z,57.23
2023-04-18T09:08:24.399Z,57.09
2023-04-18T09:09:27.616Z,57.22
2023-04-18T09:10:34.125Z,57.04
2023-04-18T09:11:35.715Z,57.10
2023-04-18T09:12:50.317Z,57.02
2023-04-18T09:13:53.193Z,56.83
2023-04-18T09:15:13.904Z,56.83
2023-04-18T09:16:15.426Z,57.01
2023-04-18T09:17:43.568Z,56.86
2023-04-18T09:19:10.505Z,56.99
2023-04-18T09:20:15.932Z,57.12
2023-04-18T09:21:19.463Z,56.70
2023-04-18T09:22:21.964Z,57.02
2023-04-18T09:23:24.551Z,56.44
2023-04-18T09:24:28.895Z,56.09
2023-04-18T09:25:36.337Z,56.17
2023-04-18T09:26:39.393Z,56.83
2023-04-18T09:27:40.815Z,56.28
2023-04-18T09:28:42.381Z,56.47
2023-04-18T09:29:49.581Z,56.43
2023-04-18T09:30:52.599Z,56.09
2023-04-18T09:32:01.781Z,56.25
2023-04-18T09:33:04.485Z,56.04
2023-04-18T09:34:20.920Z,55.69
2023-04-18T09:35:25.526Z,55.54
2023-04-18T09:36:27.790Z,56.62
2023-04-18T09:37:30.172Z,55.96
2023-04-18T09:38:41.450Z,55.48
2023-04-18T09:39:44.709Z,55.72
2023-04-18T09:40:46.230Z,55.33
2023-04-18T09:42:00.824Z,55.52
2023-04-18T09:43:18.274Z,55.01
2023-04-18T09:44:20.351Z,55.04
2023-04-18T09:45:23.616Z,55.11
2023-04-18T09:46:27.301Z,55.24
2023-04-18T09:47:29.009Z,56.19
2023-04-18T09:48:30.915Z,55.67
2023-04-18T09:49:32.654Z,55.89
2023-04-18T09:50:35.729Z,55.55
2023-04-18T09:51:40.329Z,55.34
2023-04-18T09:52:43.004Z,56.39
2023-04-18T09:53:45.122Z,56.05
2023-04-18T09:54:59.574Z,55.35
2023-04-18T09:56:03.417Z,55.82
2023-04-18T09:57:11.084Z,56.03
2023-04-18T09:58:13.870Z,56.88
2023-04-18T09:59:21.008Z,56.33
2023-04-18T10:00:25.423Z,56.14
2023-04-18T10:01:31.257Z,56.57
2023-04-18T10:02:38.930Z,56.41
2023-04-18T10:03:47.332Z,56.60
2023-04-18T10:04:54.253Z,56.85
2023-04-18T10:05:57.774Z,57.05
2023-04-18T10:07:00.741Z,56.97
2023-04-18T10:08:03.186Z,57.00
2023-04-18T10:09:05.782Z,56.75
2023-04-18T10:10:07.825Z,56.76
2023-04-18T10:11:09.403Z,56.36
2023-04-18T10:12:14.702Z,56.76
2023-04-18T10:13:19.332Z,56.88
2023-04-18T10:14:22.738Z,57.59
2023-04-18T10:15:27.608Z,57.95
2023-04-18T10:16:29.469Z,57.18
2023-04-18T10:17:52.502Z,57.88
2023-04-18T10:19:26.144Z,57.99
2023-04-18T10:20:32.319Z,57.45
2023-04-18T10:21:34.412Z,57.63
2023-04-18T10:22:36.684Z,57.92
2023-04-18T10:23:39.923Z,57.42
2023-04-18T10:24:56.138Z,57.08
2023-04-18T10:25:58.461Z,56.84
2023-04-18T10:27:00.342Z,56.74
2023-04-18T10:28:02.904Z,57.31
2023-04-18T10:29:04.439Z,57.32
2023-04-18T10:30:08.915Z,56.78
2023-04-18T10:31:10.825Z,57.15
2023-04-18T10:32:12.359Z,57.00
2023-04-18T10:33:33.821Z,57.56
2023-04-18T10:34:37.618Z,57.66
2023-04-18T10:35:59.913Z,58.00
2023-04-18T10:37:06.264Z,57.52
2023-04-18T10:38:16.790Z,56.99
2023-04-18T10:39:22.958Z,56.35
2023-04-18T10:40:34.984Z,56.69
2023-04-18T10:41:48.891Z,56.63
2023-04-18T10:42:54.308Z,56.91
2023-04-18T10:44:08.691Z,56.75
2023-04-18T10:45:21.161Z,56.36
2023-04-18T10:46:31.760Z,56.34
2023-04-18T10:47:34.515Z,56.78
2023-04-18T10:48:39.166Z,56.91
2023-04-18T10:49:53.513Z,56.67
2023-04-18T10:51:17.607Z,56.42
2023-04-18T10:52:19.203Z,56.98
2023-04-18T10:53:20.810Z,56.63
2023-04-18T10:54:50.934Z,56.75
2023-04-18T10:55:55.830Z,57.24
2023-04-18T10:56:59.598Z,56.83
2023-04-18T10:58:01.664Z,56.27
2023-04-18T10:59:03.725Z,56.67
2023-04-18T11:00:09.356Z,56.26
2023-04-18T11:01:14.426Z,56.29
2023-04-18T11:02:28.914Z,56.80
2023-04-18T11:03:40.410Z,57.59
2023-04-18T11:04:42.000Z,57.15
2023-04-18T11:05:46.019Z,57.06
2023-04-18T11:06:54.896Z,56.78
2023-04-18T11:07:56.506Z,56.00
2023-04-18T11:09:16.369Z,56.38
2023-04-18T11:10:22.964Z,56.58
2023-04-18T11:11:24.622Z,56.78
2023-04-18T11:12:30.758Z,57.30
2023-04-18T11:13:32.222Z,58.15
2023-04-18T11:14:44.787Z,57.08
2023-04-18T11:15:46.266Z,57.04
2023-04-18T11:16:47.748Z,55.81
2023-04-18T11:18:15.787Z,55.72
2023-04-18T11:19:23.324Z,55.63
2023-04-18T11:20:24.948Z,55.53
2023-04-18T11:21:30.823Z,54.99
2023-04-18T11:22:32.896Z,54.36
2023-04-18T11:23:34.409Z,54.53
2023-04-18T11:24:36.617Z,54.72
2023-04-18T11:25:40.597Z,54.67
2023-04-18T11:26:47.580Z,55.30
2023-04-18T11:27:55.584Z,55.06
2023-04-18T11:28:57.817Z,54.45
2023-04-18T11:29:59.449Z,54.31
2023-04-18T11:31:01.937Z,54.12
2023-04-18T11:32:07.707Z,54.68
2023-04-18T11:33:13.938Z,54.48
2023-04-18T11:34:15.797Z,54.91
2023-04-18T11:35:21.188Z,55.22
2023-04-18T11:36:27.649Z,55.47
2023-04-18T11:37:29.588Z,55.64
2023-04-18T11:38:31.148Z,55.95
2023-04-18T11:39:41.048Z,55.52
2023-04-18T11:40:49.818Z,55.79
2023-04-18T11:42:00.247Z,56.02
2023-04-18T11:43:06.152Z,56.61
2023-04-18T11:44:08.334Z,55.99
2023-04-18T11:45:15.947Z,56.27
2023-04-18T11:46:17.674Z,56.89
2023-04-18T11:47:27.444Z,56.57
2023-04-18T11:48:40.167Z,56.87
2023-04-18T11:49:42.173Z,57.09
2023-04-18T11:50:43.725Z,56.35
2023-04-18T11:51:46.409Z,56.26
2023-04-18T11:52:51.024Z,56.30
2023-04-18T11:53:52.523Z,56.25
2023-04-18T11:54:54.651Z,55.84
2023-04-18T11:55:56.464Z,55.30
2023-04-18T11:56:58.018Z,54.88
2023-04-18T11:58:03.260Z,55.01
2023-04-18T11:59:10.663Z,55.01
2023-04-18T12:00:12.886Z,55.07
2023-04-18T12:01:24.758Z,55.43
2023-04-18T12:02:46.542Z,54.69
2023-04-18T12:04:02.875Z,54.83
2023-04-18T12:05:06.054Z,55.02
2023-04-18T12:06:07.978Z,54.80
2023-04-18T12:07:09.539Z,55.12
2023-04-18T12:08:15.889Z,54.83
2023-04-18T12:09:18.462Z,54.82
2023-04-18T12:10:24.197Z,55.11
2023-04-18T12:11:26.245Z,54.95
2023-04-18T12:12:27.815Z,54.54
2023-04-18T12:13:32.833Z,54.71
2023-04-18T12:14:35.925Z,54.92
2023-04-18T12:15:44.558Z,54.63
2023-04-18T12:16:46.384Z,54.81
2023-04-18T12:17:48.612Z,54.65
2023-04-18T12:18:50.991Z,54.75
2023-04-18T12:19:53.894Z,53.11
2023-04-18T12:20:55.359Z,53.02
2023-04-18T12:22:00.723Z,52.63
2023-04-18T12:23:03.590Z,52.89
2023-04-18T12:24:18.250Z,52.61
2023-04-18T12:25:27.302Z,52.63
2023-04-18T12:26:29.313Z,52.32
2023-04-18T12:27:47.634Z,52.44
2023-04-18T12:28:54.094Z,52.60
2023-04-18T12:29:55.774Z,52.50
2023-04-18T12:30:57.349Z,52.25
2023-04-18T12:31:59.005Z,52.16
2023-04-18T12:33:03.067Z,52.13
2023-04-18T12:34:04.567Z,51.57
2023-04-18T12:35:07.692Z,52.05
2023-04-18T12:36:10.433Z,52.44
2023-04-18T12:37:12.001Z,51.71
2023-04-18T12:38:13.550Z,51.04
2023-04-18T12:39:15.072Z,51.18
2023-04-18T12:40:19.035Z,51.08
2023-04-18T12:41:20.846Z,50.72
2023-04-18T12:42:22.371Z,50.58
2023-04-18T12:43:24.218Z,50.55
2023-04-18T12:44:25.827Z,50.60
2023-04-18T12:45:27.646Z,50.78
2023-04-18T12:46:29.382Z,50.54
2023-04-18T12:47:31.200Z,50.84
2023-04-18T12:48:32.744Z,51.57
2023-04-18T12:49:34.289Z,50.62
2023-04-18T12:50:35.858Z,50.69
2023-04-18T12:51:37.406Z,51.04
2023-04-18T12:52:40.745Z,51.34
2023-04-18T12:53:42.273Z,50.82
2023-04-18T12:54:43.754Z,51.24
2023-04-18T12:55:45.337Z,51.72
2023-04-18T12:56:46.834Z,52.11
2023-04-18T12:57:52.209Z,52.82
2023-04-18T12:58:53.707Z,52.77
2023-04-18T12:59:55.144Z,52.29
2023-04-18T13:00:57.797Z,52.16
2023-04-18T13:01:59.555Z,52.39
2023-04-18T13:03:01.409Z,52.26
2023-04-18T13:04:11.775Z,52.94
2023-04-18T13:05:15.864Z,53.53
2023-04-18T13:06:17.535Z,54.25
2023-04-18T13:07:19.461Z,54.06
2023-04-18T13:08:21.161Z,53.84
2023-04-18T13:09:22.754Z,53.69
2023-04-18T13:10:25.246Z,53.57
2023-04-18T13:11:28.749Z,53.32
2023-04-18T13:12:30.749Z,53.50
2023-04-18T13:13:34.401Z,53.59
2023-04-18T13:14:37.160Z,53.58
2023-04-18T13:15:38.921Z,53.59
2023-04-18T13:16:43.569Z,53.83
2023-04-18T13:17:45.500Z,54.36
2023-04-18T13:18:47.202Z,54.15
2023-04-18T13:19:49.654Z,54.42
2023-04-18T13:20:51.201Z,54.55
2023-04-18T13:21:53.379Z,54.61
2023-04-18T13:22:54.899Z,54.88
2023-04-18T13:23:56.395Z,55.08
2023-04-18T13:24:57.927Z,55.44
2023-04-18T13:25:59.443Z,55.54
2023-04-18T13:27:02.404Z,55.36
2023-04-18T13:28:04.220Z,55.66
2023-04-18T13:29:05.897Z,55.83
2023-04-18T13:30:08.793Z,56.29
2023-04-18T13:31:10.300Z,56.31
2023-04-18T13:32:13.057Z,57.40
2023-04-18T13:33:15.501Z,57.50
2023-04-18T13:34:17.057Z,59.10
2023-04-18T13:35:18.749Z,58.52
2023-04-18T13:36:20.684Z,57.66
2023-04-18T13:37:23.311Z,57.29